Terminal Aerodrome Forecast
Issued by NWS

Home | Current Version | Previous Version | Graphics & Text | Print | Product List | Glossary On
Versions: 1 2 3 4 5 6 7 8 9 10 11 12 13 14 15 16 17 18 19 20 21 22 23 24 25 26 27 28 29 30 31 32 33 34 35 36 37 38 39 40 41 42 43 44 45 46
092
FTUS43 KLOT 200540
TAFGYY
TAF
KGYY 200540Z 2006/2106 VRB03KT 1SM BR FEW009 FEW250
      TEMPO 2009/2013 1/4SM FG VV002
     FM201500 15007KT 6SM BR FEW015 SCT060
     FM201800 18012G19KT P6SM SCT060 SCT250
     FM210100 20006KT P6SM BKN200=

USA.gov is the U.S. government's official web portal to all federal, state and local government web resources and services.